Time;durP1;ratioP1;P1;durP2;ratioP2;P2;SDS_P1;SDS_P2;PMS_P1;PMS_P2;Temp;Humidity;BMP_temperature;BMP_pressure;BME280_temperature;BME280_humidity;BME280_pressure;Samples;Min_cycle;Max_cycle;Signal;HPM_P1;HPM_P2
2022/03/08 00:01:53;;;;;;;22.17;9.35;;;;;;;-1.87;100.00;99150.66;5929930;24;20116;-71
2022/03/08 00:04:19;;;;;;;23.42;10.82;;;;;;;-1.84;100.00;99160.22;5933415;24;20028;-72
2022/03/08 00:06:46;;;;;;;27.23;12.02;;;;;;;-1.86;100.00;99162.97;5935528;24;20035;-73
2022/03/08 00:09:12;;;;;;;26.40;11.80;;;;;;;-1.84;100.00;99158.44;5933514;24;20028;-74
2022/03/08 00:11:37;;;;;;;25.15;11.75;;;;;;;-1.83;100.00;99165.47;5956431;24;20471;-73
2022/03/08 00:14:03;;;;;;;27.02;12.30;;;;;;;-1.88;100.00;99164.00;5932279;24;20066;-73
2022/03/08 00:16:29;;;;;;;18.85;7.78;;;;;;;-2.01;100.00;99158.50;5957056;24;20098;-73
2022/03/08 00:18:55;;;;;;;20.92;8.35;;;;;;;-1.98;100.00;99161.00;5935136;24;20087;-72
2022/03/08 00:21:21;;;;;;;28.65;11.43;;;;;;;-2.37;100.00;99104.00;5932778;24;20115;-73
2022/03/08 00:23:47;;;;;;;22.75;10.13;;;;;;;-2.03;100.00;99166.56;5910298;24;20032;-72
2022/03/08 00:26:13;;;;;;;30.80;10.80;;;;;;;-2.06;99.95;99165.88;5978692;24;20049;-74
2022/03/08 00:28:39;;;;;;;21.52;10.35;;;;;;;-2.05;100.00;99172.84;5980816;24;20103;-72
2022/03/08 00:31:07;;;;;;;21.40;8.32;;;;;;;-2.08;100.00;99170.41;5956107;24;20068;-74
2022/03/08 00:33:33;;;;;;;19.75;8.57;;;;;;;-2.15;100.00;99161.09;5933666;24;20111;-72
2022/03/08 00:35:59;;;;;;;18.10;6.05;;;;;;;-2.13;100.00;99169.78;5979094;24;20158;-72
2022/03/08 00:38:24;;;;;;;14.35;6.18;;;;;;;-2.11;100.00;99167.91;5910253;24;20048;-72
2022/03/08 00:40:50;;;;;;;20.15;8.63;;;;;;;-2.09;99.90;99171.31;5932567;24;20126;-73
2022/03/08 00:43:16;;;;;;;20.88;7.38;;;;;;;-2.12;100.00;99176.78;5932364;24;20036;-73
2022/03/08 00:45:43;;;;;;;18.75;7.22;;;;;;;-2.20;100.00;99180.69;5932024;24;20063;-73
2022/03/08 00:48:09;;;;;;;19.15;7.63;;;;;;;-2.23;100.00;99186.19;5978405;24;20355;-73
2022/03/08 00:50:36;;;;;;;17.73;7.80;;;;;;;-2.16;100.00;99188.47;5932291;24;20024;-72
2022/03/08 00:53:02;;;;;;;20.23;7.88;;;;;;;-2.23;100.00;99180.88;5932285;24;20130;-72
2022/03/08 00:55:30;;;;;;;18.50;7.85;;;;;;;-2.15;100.00;99179.63;5932562;24;20458;-73
2022/03/08 00:57:56;;;;;;;12.57;4.28;;;;;;;-2.26;100.00;99181.03;5932879;24;20464;-73
2022/03/08 01:00:25;;;;;;;16.65;7.35;;;;;;;-2.15;100.00;99182.28;5956177;24;20028;-71
2022/03/08 01:02:51;;;;;;;18.23;8.60;;;;;;;-2.13;100.00;99183.88;5979542;24;20114;-70
2022/03/08 01:05:18;;;;;;;18.67;8.10;;;;;;;-2.17;100.00;99200.00;5955734;24;20032;-73
2022/03/08 01:07:44;;;;;;;17.15;7.45;;;;;;;-2.22;100.00;99192.31;5955119;24;20028;-74
2022/03/08 01:10:15;;;;;;;16.80;7.05;;;;;;;-2.27;100.00;99189.91;5979830;24;20031;-73
2022/03/08 01:12:41;;;;;;;;;;;;;;;-2.11;100.00;99200.53;5979450;24;20024;-73
2022/03/08 01:15:07;;;;;;;14.80;6.32;;;;;;;-2.19;100.00;99198.31;5982421;24;19986;-73
2022/03/08 01:17:33;;;;;;;14.52;6.22;;;;;;;-2.23;99.62;99199.41;5959310;24;20020;-72
2022/03/08 01:20:00;;;;;;;13.70;5.65;;;;;;;-2.25;99.76;99203.94;5936657;24;20076;-72
2022/03/08 01:22:26;;;;;;;15.90;6.10;;;;;;;-2.49;99.46;99178.75;5959685;24;20464;-71
2022/03/08 01:24:53;;;;;;;13.88;5.45;;;;;;;-2.28;100.00;99211.19;5959227;24;20028;-71
2022/03/08 01:27:19;;;;;;;12.85;5.07;;;;;;;-2.41;99.89;99205.69;5912021;24;20028;-72
2022/03/08 01:29:45;;;;;;;11.63;5.00;;;;;;;-2.46;99.33;99210.34;5935945;24;20032;-73
2022/03/08 01:32:10;;;;;;;11.38;4.78;;;;;;;-2.38;99.67;99207.31;5935552;24;20096;-72
2022/03/08 01:34:36;;;;;;;12.43;5.50;;;;;;;-2.61;99.77;99174.13;5912410;24;20497;-72
2022/03/08 01:37:03;;;;;;;12.85;5.15;;;;;;;-2.39;100.00;99211.75;5934061;24;20107;-71
2022/03/08 01:39:30;;;;;;;14.43;5.22;;;;;;;-2.38;100.00;99221.38;5956816;24;20383;-73
2022/03/08 01:41:56;;;;;;;13.65;5.85;;;;;;;-2.39;100.00;99211.75;5956380;24;20039;-70
2022/03/08 01:44:22;;;;;;;15.23;5.55;;;;;;;-2.47;99.13;99219.25;5957090;24;20083;-70
2022/03/08 01:46:48;;;;;;;14.60;5.38;;;;;;;-2.47;98.32;99213.94;5934002;24;20028;-73
2022/03/08 01:49:14;;;;;;;14.63;5.93;;;;;;;-2.61;97.76;99211.16;5957375;24;20119;-72
2022/03/08 01:51:42;;;;;;;14.18;6.03;;;;;;;-2.64;97.25;99221.91;5957342;24;20489;-75
2022/03/08 01:54:09;;;;;;;13.40;5.63;;;;;;;-2.64;97.25;99221.91;5980601;24;20427;-72
2022/03/08 01:56:35;;;;;;;14.85;5.78;;;;;;;-2.71;97.45;99227.50;5933361;24;20123;-72
2022/03/08 01:59:02;;;;;;;16.08;6.53;;;;;;;-2.79;97.17;99229.69;5958749;24;20137;-72
2022/03/08 02:01:28;;;;;;;14.13;5.90;;;;;;;-2.98;96.99;99213.88;5982166;24;20032;-71
2022/03/08 02:03:54;;;;;;;13.88;5.60;;;;;;;-2.91;96.77;99232.94;5935445;24;20331;-71
2022/03/08 02:06:20;;;;;;;15.15;6.35;;;;;;;-2.99;96.24;99232.50;5933610;24;20044;-71
2022/03/08 02:08:45;;;;;;;14.68;5.75;;;;;;;-2.91;96.25;99235.59;5933338;24;20051;-72
2022/03/08 02:11:12;;;;;;;13.85;5.70;;;;;;;-2.92;95.59;99244.47;5932829;24;20075;-72
2022/03/08 02:13:38;;;;;;;13.48;5.68;;;;;;;-2.98;95.38;99239.47;5979127;24;20024;-71
2022/03/08 02:16:05;;;;;;;16.30;6.93;;;;;;;-2.90;95.59;99242.59;5956569;24;20472;-72
2022/03/08 02:18:32;;;;;;;14.65;6.07;;;;;;;-2.84;95.78;99252.88;5955793;24;20332;-72
2022/03/08 02:21:07;;;;;;;15.27;6.65;;;;;;;-2.95;94.46;99250.75;5956435;24;20108;-72
2022/03/08 02:23:33;;;;;;;15.27;6.00;;;;;;;-3.01;94.28;99250.19;5956301;24;20053;-72
2022/03/08 02:26:00;;;;;;;14.05;6.00;;;;;;;-3.02;94.45;99253.78;5932569;24;20024;-72
2022/03/08 02:28:26;;;;;;;16.58;6.30;;;;;;;-3.06;94.22;99257.53;5932785;24;20035;-71
2022/03/08 02:30:51;;;;;;;14.68;6.97;;;;;;;-3.04;94.20;99256.50;5956038;24;20024;-73
2022/03/08 02:33:17;;;;;;;14.00;5.90;;;;;;;-3.01;93.95;99269.56;5932986;24;20043;-73
2022/03/08 02:35:43;;;;;;;15.35;5.45;;;;;;;-3.01;93.36;99260.78;5910164;24;20034;-72
2022/03/08 02:38:09;;;;;;;14.30;5.93;;;;;;;-3.01;94.05;99260.78;5932718;24;20024;-70
2022/03/08 02:40:37;;;;;;;17.52;6.65;;;;;;;-3.10;93.46;99261.25;5955591;24;20032;-71
2022/03/08 02:43:05;;;;;;;13.95;5.50;;;;;;;-3.09;94.06;99260.31;5956268;24;20032;-71
2022/03/08 02:45:31;;;;;;;16.60;6.07;;;;;;;-3.17;94.11;99276.56;5978980;24;20077;-71
2022/03/08 02:47:56;;;;;;;13.77;5.68;;;;;;;-3.19;94.33;99268.69;5955775;24;20036;-71
2022/03/08 02:50:22;;;;;;;15.48;5.80;;;;;;;-3.14;94.29;99276.41;5955208;24;20032;-70
2022/03/08 02:52:51;;;;;;;14.50;6.65;;;;;;;-3.18;94.19;99283.63;5955403;24;20060;-70
2022/03/08 02:55:19;;;;;;;15.45;5.88;;;;;;;-3.34;94.53;99269.41;5978796;24;20116;-71
2022/03/08 02:57:45;;;;;;;15.23;5.82;;;;;;;-3.27;94.09;99291.13;5978961;24;20034;-71
2022/03/08 03:00:13;;;;;;;16.65;5.63;;;;;;;-3.31;94.38;99285.13;5909719;24;20118;-72
2022/03/08 03:02:39;;;;;;;14.82;5.78;;;;;;;-3.29;94.27;99299.16;5933209;24;20111;-73
2022/03/08 03:05:06;;;;;;;14.27;5.88;;;;;;;-3.39;94.14;99297.88;5932580;24;20060;-72
2022/03/08 03:07:32;;;;;;;18.55;6.68;;;;;;;-3.34;94.14;99301.13;5955213;24;20024;-72
2022/03/08 03:09:58;;;;;;;17.88;5.90;;;;;;;-3.44;93.61;99303.38;5955125;24;20032;-72
2022/03/08 03:12:24;;;;;;;16.30;6.28;;;;;;;-3.45;93.73;99314.00;5932164;24;20079;-70
2022/03/08 03:14:49;;;;;;;17.27;5.53;;;;;;;-3.67;93.48;99278.00;5933826;24;20034;-72
2022/03/08 03:17:19;;;;;;;13.73;5.60;;;;;;;-3.38;93.46;99320.72;5933426;24;20110;-71
2022/03/08 03:19:44;;;;;;;12.05;4.35;;;;;;;-3.41;93.55;99315.56;5956442;24;20020;-72
2022/03/08 03:22:10;;;;;;;12.38;4.72;;;;;;;-3.48;93.69;99324.69;5978650;24;20470;-72
2022/03/08 03:24:36;;;;;;;14.38;5.13;;;;;;;-3.46;93.89;99323.72;5933582;24;20100;-73
2022/03/08 03:27:02;;;;;;;15.40;5.18;;;;;;;-3.55;93.77;99303.00;5933504;24;20055;-71
2022/03/08 03:29:28;;;;;;;11.15;3.38;;;;;;;-3.43;92.28;99328.00;5956747;24;20060;-71
2022/03/08 03:31:54;;;;;;;13.68;5.15;;;;;;;-3.44;91.89;99336.84;5931931;24;20031;-72
2022/03/08 03:34:20;;;;;;;16.20;5.32;;;;;;;-3.54;91.71;99330.28;5978835;24;20027;-71
2022/03/08 03:36:45;;;;;;;14.35;4.95;;;;;;;-3.51;91.84;99338.06;5979245;24;20367;-71
2022/03/08 03:39:11;;;;;;;14.30;6.22;;;;;;;-3.59;91.82;99337.56;5932814;24;20538;-74
2022/03/08 03:41:37;;;;;;;13.75;5.05;;;;;;;-3.67;91.65;99343.19;5932663;24;20418;-72
2022/03/08 03:44:03;;;;;;;12.88;4.90;;;;;;;-3.71;92.03;99331.91;5932315;24;20355;-71
2022/03/08 03:46:29;;;;;;;14.18;5.25;;;;;;;-3.65;91.94;99338.72;5978246;24;20100;-70
2022/03/08 03:48:55;;;;;;;12.95;5.15;;;;;;;-3.70;92.68;99349.47;5955712;24;20030;-71
2022/03/08 03:51:21;;;;;;;18.40;4.80;;;;;;;-3.55;91.53;99354.97;5933370;24;20108;-72
2022/03/08 03:53:47;;;;;;;12.68;5.25;;;;;;;-3.65;91.28;99360.69;5934938;24;20436;-72
2022/03/08 03:56:13;;;;;;;10.70;3.50;;;;;;;-3.65;91.24;99360.69;5934264;24;20184;-69
2022/03/08 03:58:40;;;;;;;14.93;5.35;;;;;;;-3.85;90.66;99336.94;5910900;24;20470;-72
2022/03/08 04:01:06;;;;;;;12.32;5.25;;;;;;;-3.75;91.33;99362.03;5955767;24;20032;-73
2022/03/08 04:03:32;;;;;;;13.32;5.18;;;;;;;-3.70;91.13;99367.09;5981360;24;20059;-72
2022/03/08 04:05:57;;;;;;;12.15;4.82;;;;;;;-3.66;91.07;99374.84;5956087;24;20502;-72
2022/03/08 04:08:23;;;;;;;10.88;4.35;;;;;;;-3.78;90.56;99364.81;5956323;24;20410;-73
2022/03/08 04:10:51;;;;;;;12.13;5.55;;;;;;;-3.82;90.75;99378.22;5933565;24;20047;-71
2022/03/08 04:13:18;;;;;;;15.70;6.35;;;;;;;-3.89;90.90;99369.69;5958665;24;20051;-70
2022/03/08 04:15:45;;;;;;;14.57;5.43;;;;;;;-3.82;91.08;99376.44;5958275;24;20028;-72
2022/03/08 04:18:12;;;;;;;16.45;5.45;;;;;;;-3.81;91.23;99374.66;5981328;24;20474;-72
2022/03/08 04:20:38;;;;;;;15.77;5.57;;;;;;;-3.79;91.61;99384.22;5980890;24;20028;-72
2022/03/08 04:23:04;;;;;;;17.05;5.55;;;;;;;-3.79;91.43;99386.88;5933769;24;20050;-72
2022/03/08 04:25:30;;;;;;;11.60;3.75;;;;;;;-3.84;90.65;99375.63;5912099;24;20063;-72
2022/03/08 04:27:55;;;;;;;13.40;5.13;;;;;;;-3.75;90.77;99379.66;5934641;24;20289;-72
2022/03/08 04:30:21;;;;;;;13.73;4.80;;;;;;;-3.82;91.09;99394.91;5934008;24;20031;-73
2022/03/08 04:32:50;;;;;;;12.40;5.07;;;;;;;-3.84;91.17;99390.63;5933734;24;20050;-71
2022/03/08 04:35:17;;;;;;;14.20;5.22;;;;;;;-3.82;91.54;99389.63;5933266;24;20043;-74
2022/03/08 04:37:43;;;;;;;18.48;5.28;;;;;;;-3.79;91.71;99394.78;5981478;24;20124;-72
2022/03/08 04:40:10;;;;;;;13.20;4.40;;;;;;;-3.80;91.66;99395.72;5933764;24;20047;-72
2022/03/08 04:42:36;;;;;;;18.75;5.43;;;;;;;-3.88;91.60;99400.44;5935928;24;20020;-72
2022/03/08 04:45:02;;;;;;;17.73;5.32;;;;;;;-3.68;92.60;99407.50;5934129;24;20067;-72
2022/03/08 04:47:29;;;;;;;15.43;5.30;;;;;;;-3.70;92.35;99410.22;5956863;24;20035;-74
2022/03/08 04:49:55;;;;;;;18.10;6.07;;;;;;;-3.70;92.09;99407.56;5933641;24;20035;-74
2022/03/08 04:52:21;;;;;;;14.07;5.28;;;;;;;-3.80;92.13;99403.66;5957428;24;20028;-71
2022/03/08 04:54:47;;;;;;;13.05;5.05;;;;;;;-3.59;92.40;99427.38;5933202;24;20120;-73
2022/03/08 04:57:14;;;;;;;10.50;4.03;;;;;;;-3.76;91.71;99399.09;5955025;24;20127;-74
2022/03/08 04:59:40;;;;;;;14.63;5.28;;;;;;;-3.50;91.47;99432.25;5979168;24;20020;-70
2022/03/08 05:02:05;;;;;;;13.32;5.88;;;;;;;-3.65;91.42;99429.38;5934984;24;20087;-72
2022/03/08 05:04:31;;;;;;;15.65;5.10;;;;;;;-3.54;91.69;99434.19;5937057;24;20060;-74
2022/03/08 05:06:57;;;;;;;14.73;5.15;;;;;;;-3.39;90.99;99435.28;5962268;24;20080;-76
2022/03/08 05:09:23;;;;;;;12.05;4.70;;;;;;;-3.39;90.99;99445.84;5966505;24;20024;-75
2022/03/08 05:11:49;;;;;;;11.98;3.30;;;;;;;-3.43;90.55;99444.28;5947279;24;20028;-79
2022/03/08 05:14:15;;;;;;;12.23;4.43;;;;;;;-3.38;90.38;99436.97;5969628;24;20031;-77
2022/03/08 05:16:41;;;;;;;12.77;4.90;;;;;;;-3.25;90.47;99447.88;5925546;24;20107;-77
2022/03/08 05:19:06;;;;;;;15.77;5.43;;;;;;;-3.47;90.08;99432.13;5951195;24;20052;-76
2022/03/08 05:21:32;;;;;;;13.85;5.07;;;;;;;-3.28;90.10;99462.06;5949562;24;20027;-77
2022/03/08 05:23:58;;;;;;;16.00;5.45;;;;;;;-3.30;90.76;99466.56;5946720;24;20028;-77
2022/03/08 05:26:24;;;;;;;13.90;5.28;;;;;;;-3.36;90.08;99466.84;5952102;24;20088;-75
2022/03/08 05:28:50;;;;;;;9.25;3.85;;;;;;;-3.39;90.46;99472.28;5997737;24;20133;-75
2022/03/08 05:31:16;;;;;;;13.50;5.00;;;;;;;-3.35;90.26;99468.56;5936247;24;20063;-73
2022/03/08 05:33:42;;;;;;;14.93;5.60;;;;;;;-3.37;90.37;99470.41;5940806;24;20479;-73
2022/03/08 05:36:08;;;;;;;14.05;4.63;;;;;;;-3.27;90.50;99481.44;5939250;24;20036;-72
2022/03/08 05:38:33;;;;;;;13.10;5.55;;;;;;;-3.31;89.95;99483.34;5933016;24;20066;-73
2022/03/08 05:41:00;;;;;;;16.63;5.30;;;;;;;-3.30;89.74;99481.56;5933701;24;20032;-70
2022/03/08 05:43:26;;;;;;;13.48;5.15;;;;;;;-3.37;89.25;99490.69;5934194;24;20067;-73
2022/03/08 05:45:52;;;;;;;14.70;4.97;;;;;;;-3.30;89.82;99487.69;5939549;24;20070;-71
2022/03/08 05:48:18;;;;;;;15.73;5.55;;;;;;;-3.38;89.97;99489.84;5958795;24;20024;-73
2022/03/08 05:50:44;;;;;;;17.40;5.55;;;;;;;-3.44;89.08;99490.09;5934983;24;20116;-73
2022/03/08 05:53:10;;;;;;;16.45;5.65;;;;;;;-3.42;89.10;99494.41;5937217;24;20028;-72
2022/03/08 05:55:36;;;;;;;13.85;5.20;;;;;;;-3.27;88.85;99499.94;5954813;24;20102;-68
2022/03/08 05:58:02;;;;;;;13.15;4.28;;;;;;;-3.10;87.25;99499.19;5911772;24;20043;-74
2022/03/08 06:00:28;;;;;;;9.20;3.60;;;;;;;-3.06;85.91;99500.75;5940573;24;20062;-71
2022/03/08 06:02:54;;;;;;;11.75;4.68;;;;;;;-2.96;86.06;99504.72;5956790;24;20164;-70
2022/03/08 06:05:22;;;;;;;15.70;4.70;;;;;;;-2.93;nan;99501.91;5933092;24;20056;-71
2022/03/08 06:07:48;;;;;;;14.98;4.72;;;;;;;-2.95;85.31;99509.91;5936932;24;20036;-71
2022/03/08 06:10:14;;;;;;;12.73;5.00;;;;;;;-2.70;84.24;99504.34;5957350;24;20078;-73
2022/03/08 06:12:41;;;;;;;11.95;4.22;;;;;;;-2.75;83.98;99506.34;5960092;24;20016;-71
2022/03/08 06:15:08;;;;;;;12.20;4.45;;;;;;;-2.59;82.85;99513.59;5958067;24;20454;-74
2022/03/08 06:17:34;;;;;;;8.98;3.40;;;;;;;-2.78;81.67;99527.69;5981063;24;20020;-72
2022/03/08 06:20:00;;;;;;;14.55;5.20;;;;;;;-2.42;82.26;99513.63;5959563;24;20028;-69
2022/03/08 06:22:26;;;;;;;14.13;5.60;;;;;;;-2.31;81.71;99521.91;5981482;24;20128;-71
2022/03/08 06:24:52;;;;;;;13.60;4.47;;;;;;;-2.33;79.92;99522.94;5937517;24;20028;-72
2022/03/08 06:27:17;;;;;;;9.57;3.90;;;;;;;-2.59;79.93;99521.53;5911684;24;20036;-72
2022/03/08 06:29:43;;;;;;;13.38;4.68;;;;;;;-2.31;79.14;99527.19;5933195;24;20043;-73
2022/03/08 06:32:09;;;;;;;13.35;5.55;;;;;;;-2.32;79.76;99519.34;5933900;24;20031;-72
2022/03/08 06:34:36;;;;;;;14.05;5.38;;;;;;;-2.38;79.14;99525.78;5937986;24;20028;-73
2022/03/08 06:37:26;;;;;;;13.57;4.95;;;;;;;-2.08;77.50;99526.13;5942837;23;20034;31
2022/03/08 06:39:52;;;;;;;13.15;5.18;;;;;;;-2.45;77.04;99508.47;5992866;23;20027;-73
2022/03/08 06:42:18;;;;;;;12.98;5.45;;;;;;;-2.38;77.54;99541.66;6051705;23;20517;-70
2022/03/08 06:44:44;;;;;;;14.90;5.13;;;;;;;-2.41;76.69;99539.19;6106001;23;20022;-78
2022/03/08 06:47:10;;;;;;;13.18;4.78;;;;;;;-2.35;77.19;99540.66;6053760;23;20031;-74
2022/03/08 06:49:37;;;;;;;13.43;4.95;;;;;;;-2.35;76.72;99541.53;6021351;23;20022;-74
2022/03/08 06:52:07;;;;;;;14.30;5.53;;;;;;;-2.57;75.79;99552.25;6099408;23;20026;-73
2022/03/08 06:54:34;;;;;;;14.55;4.00;;;;;;;-2.88;76.49;99547.53;6056430;23;20037;-72
2022/03/08 06:57:00;;;;;;;19.55;5.88;;;;;;;-2.60;76.21;99560.34;6030436;23;20041;-73
2022/03/08 06:59:27;;;;;;;11.38;5.07;;;;;;;-2.62;75.99;99569.28;6052433;23;20422;-74
2022/03/08 07:01:53;;;;;;;11.55;4.65;;;;;;;-2.46;75.40;99554.41;6030422;23;20030;-74
2022/03/08 07:04:19;;;;;;;14.63;5.38;;;;;;;-2.55;75.73;99571.59;6077961;23;20062;-74
2022/03/08 07:06:45;;;;;;;10.95;4.15;;;;;;;-2.53;75.15;99574.16;6033310;23;20248;-76
2022/03/08 07:09:11;;;;;;;13.20;5.10;;;;;;;-3.16;75.50;99501.16;6048822;23;20030;-78
2022/03/08 07:11:37;;;;;;;14.32;5.13;;;;;;;-2.67;75.64;99566.84;6068090;23;20058;-75
2022/03/08 07:14:06;;;;;;;17.25;6.90;;;;;;;-2.59;75.90;99585.03;6008666;23;20042;-70
2022/03/08 07:16:33;;;;;;;15.52;5.32;;;;;;;-2.46;76.51;99584.38;6004309;23;20121;-74
2022/03/08 07:18:59;;;;;;;17.30;5.00;;;;;;;-2.34;76.40;99585.63;6037543;23;20137;-72
2022/03/08 07:21:25;;;;;;;12.40;4.70;;;;;;;-2.48;76.63;99588.91;6029621;23;20300;-75
2022/03/08 07:23:51;;;;;;;11.90;3.80;;;;;;;-2.41;75.68;99594.78;6008093;23;20026;-75
2022/03/08 07:26:18;;;;;;;12.65;4.22;;;;;;;-2.57;75.88;99585.81;6027383;23;20026;-72
2022/03/08 07:28:44;;;;;;;10.00;3.45;;;;;;;-2.63;76.96;99591.38;6050877;23;20503;-77
2022/03/08 07:31:12;;;;;;;13.82;4.65;;;;;;;-2.54;77.42;99593.59;6019176;23;20383;-72
2022/03/08 07:33:38;;;;;;;12.02;3.85;;;;;;;-2.62;77.02;99595.75;6016057;23;20050;-72
2022/03/08 07:36:04;;;;;;;11.02;4.05;;;;;;;-2.65;75.52;99601.19;6026887;23;20086;-72
2022/03/08 07:38:31;;;;;;;14.52;4.45;;;;;;;-3.15;75.98;99545.16;6079701;23;20038;-76
2022/03/08 07:40:57;;;;;;;10.85;3.83;;;;;;;-2.76;76.01;99599.88;6035814;23;20074;-76
2022/03/08 07:43:23;;;;;;;12.55;3.05;;;;;;;-2.88;75.42;99605.72;6034756;23;20116;-76
2022/03/08 07:45:49;;;;;;;10.70;3.65;;;;;;;-2.72;76.37;99616.47;6003162;23;20033;-74
2022/03/08 07:48:16;;;;;;;13.25;3.67;;;;;;;-2.69;75.33;99611.91;6033284;23;20027;-74
2022/03/08 07:50:42;;;;;;;10.40;3.50;;;;;;;-2.87;74.94;99607.44;6017333;23;20027;-76
2022/03/08 07:53:08;;;;;;;10.70;3.67;;;;;;;-2.63;75.64;99620.47;6090114;23;20061;-73
2022/03/08 07:55:34;;;;;;;12.63;4.25;;;;;;;-2.64;75.69;99618.75;6036115;23;20125;-72
2022/03/08 08:00:47;;;;;;;11.57;4.00;;;;;;;-2.85;74.25;99628.50;5973180;24;20036;-74
2022/03/08 08:03:12;;;;;;;12.77;4.35;;;;;;;-3.04;73.55;99570.28;5969893;24;20590;-73
2022/03/08 08:05:39;;;;;;;10.15;3.63;;;;;;;-2.54;73.80;99635.94;5995012;24;20073;-72
2022/03/08 08:08:05;;;;;;;11.98;4.47;;;;;;;-2.77;73.52;99639.63;5951486;24;20035;-75
2022/03/08 08:10:33;;;;;;;11.10;2.80;;;;;;;-2.65;72.92;99648.81;5947032;24;20028;-72
2022/03/08 08:13:00;;;;;;;10.57;3.28;;;;;;;-2.60;73.26;99647.66;5929163;24;20100;-73
2022/03/08 08:15:28;;;;;;;12.95;3.80;;;;;;;-2.39;73.47;99643.19;5972944;24;20055;-76
2022/03/08 08:17:54;;;;;;;11.82;4.50;;;;;;;-2.49;72.44;99639.22;5977353;24;20056;-72
2022/03/08 08:20:21;;;;;;;14.52;4.43;;;;;;;-2.45;72.28;99646.09;6055798;23;20037;-72
2022/03/08 08:22:47;;;;;;;14.75;4.38;;;;;;;-2.54;72.86;99657.13;6034844;23;20034;-74
2022/03/08 08:25:13;;;;;;;10.52;3.90;;;;;;;-2.56;72.52;99654.56;6032236;23;20018;-77
2022/03/08 08:27:40;;;;;;;12.30;4.28;;;;;;;-2.67;72.43;99655.03;6015383;23;20077;-69
2022/03/08 08:30:09;;;;;;;10.90;3.75;;;;;;;-2.84;72.64;99636.41;6036588;23;20030;-75
2022/03/08 08:32:35;;;;;;;11.52;3.30;;;;;;;-2.35;71.83;99655.34;6086483;23;20030;-73
2022/03/08 08:35:01;;;;;;;12.13;4.30;;;;;;;-2.37;72.27;99654.56;6087285;23;20022;-73
2022/03/08 08:37:28;;;;;;;14.57;4.32;;;;;;;-2.42;72.08;99667.13;6035960;23;20030;-73
2022/03/08 08:39:54;;;;;;;10.90;3.65;;;;;;;-2.57;71.99;99662.53;6083725;23;20101;-72
2022/03/08 08:42:21;;;;;;;13.57;5.22;;;;;;;-2.47;72.15;99670.00;6023803;23;20030;-72
2022/03/08 08:44:47;;;;;;;15.77;5.18;;;;;;;-2.48;71.06;99670.09;6009829;23;20189;-75
2022/03/08 08:47:13;;;;;;;13.07;4.82;;;;;;;-2.49;71.40;99671.00;6010913;23;20027;-74
2022/03/08 08:49:39;;;;;;;14.48;4.82;;;;;;;-2.54;70.85;99662.41;6063966;23;20036;-72
2022/03/08 08:52:08;;;;;;;14.48;5.45;;;;;;;-2.45;70.75;99672.56;6037320;23;20040;-74
2022/03/08 08:54:34;;;;;;;17.83;4.95;;;;;;;-2.35;70.80;99673.88;6081857;23;20078;-73
2022/03/08 08:57:00;;;;;;;11.70;4.75;;;;;;;-2.39;71.81;99688.19;6000381;23;20030;-69
2022/03/08 08:59:27;;;;;;;10.57;4.18;;;;;;;-2.52;71.67;99682.59;6028792;23;20019;-73
2022/03/08 09:01:53;;;;;;;12.77;4.85;;;;;;;-2.34;70.82;99680.03;6005845;23;20041;-71
2022/03/08 09:04:19;;;;;;;15.27;4.60;;;;;;;-2.40;70.33;99654.72;6007904;23;20314;-74
2022/03/08 09:06:45;;;;;;;10.23;3.88;;;;;;;-2.14;71.05;99681.78;6003643;23;20081;-70
2022/03/08 09:09:11;;;;;;;11.40;4.00;;;;;;;-2.21;69.78;99671.47;6051554;23;20007;-75
2022/03/08 09:11:38;;;;;;;11.48;4.13;;;;;;;-2.05;71.66;99681.34;6025675;23;20033;-72
2022/03/08 09:14:05;;;;;;;12.07;4.25;;;;;;;-2.12;69.17;99686.09;6021195;23;20022;-72
2022/03/08 09:16:31;;;;;;;11.73;4.55;;;;;;;-2.09;70.03;99688.56;6029270;23;20026;-75
2022/03/08 09:18:57;;;;;;;16.27;4.88;;;;;;;-2.08;70.04;99692.09;6008746;23;20093;-72
2022/03/08 09:21:25;;;;;;;9.23;3.30;;;;;;;-2.21;70.48;99676.75;6034378;23;20044;-71
2022/03/08 09:23:50;;;;;;;9.85;3.70;;;;;;;-2.25;68.39;99658.44;6074058;23;20117;-73
2022/03/08 09:26:16;;;;;;;15.70;4.28;;;;;;;-1.59;68.64;99689.78;6059886;23;20332;-72
2022/03/08 09:28:42;;;;;;;10.93;3.80;;;;;;;-1.63;67.15;99677.63;6025538;23;20026;-73
2022/03/08 09:31:08;;;;;;;16.58;4.53;;;;;;;-1.48;68.21;99687.47;6021535;23;20022;-68
2022/03/08 09:33:34;;;;;;;11.93;4.30;;;;;;;-1.66;68.49;99699.81;6025732;23;20460;-73
2022/03/08 09:36:00;;;;;;;10.90;3.55;;;;;;;-1.55;67.04;99696.66;6054103;23;20046;-71
2022/03/08 09:38:26;;;;;;;12.10;4.25;;;;;;;-1.68;68.06;99708.75;6073589;23;20030;-73
2022/03/08 09:40:52;;;;;;;12.65;4.63;;;;;;;-1.31;68.45;99699.91;6004429;23;20045;-70
2022/03/08 09:43:19;;;;;;;13.90;4.80;;;;;;;-1.15;66.60;99711.47;6052799;23;20033;-71
2022/03/08 09:45:45;;;;;;;12.02;4.43;;;;;;;-1.23;66.63;99714.50;6050754;23;20026;-72
2022/03/08 09:48:11;;;;;;;13.20;4.85;;;;;;;-1.43;67.14;99709.28;6029585;23;20434;-71
2022/03/08 09:50:37;;;;;;;13.27;4.15;;;;;;;-1.67;66.03;99718.44;6027702;23;20018;-71
2022/03/08 09:53:04;;;;;;;13.55;4.30;;;;;;;-1.82;68.15;99723.53;6047452;23;20034;-71
2022/03/08 09:55:30;;;;;;;17.30;4.28;;;;;;;-1.79;67.97;99730.47;6046006;23;20022;-69
2022/03/08 09:57:56;;;;;;;10.63;4.15;;;;;;;-1.79;68.54;99730.47;6068930;23;20074;-68
2022/03/08 10:00:24;;;;;;;11.05;4.38;;;;;;;-1.75;69.23;99735.56;6023055;23;20452;-68
2022/03/08 10:02:52;;;;;;;12.65;4.75;;;;;;;-1.97;67.53;99732.19;6045865;23;20026;-68
2022/03/08 10:05:26;;;;;;;14.00;4.70;;;;;;;-2.05;68.43;99734.31;6043405;23;20034;-67
2022/03/08 10:08:13;;;;;;;10.88;4.15;;;;;;;-2.00;68.71;99732.34;6022434;23;20105;-71
2022/03/08 10:10:44;;;;;;;11.85;4.20;;;;;;;-2.07;67.92;99730.91;6100833;23;20014;-71
2022/03/08 10:13:11;;;;;;;11.50;4.00;;;;;;;-2.37;67.39;99723.41;6048771;23;20034;-70
2022/03/08 10:15:38;;;;;;;12.98;5.95;;;;;;;-2.04;68.19;99722.81;6099726;23;20093;-69
2022/03/08 10:18:04;;;;;;;11.35;4.45;;;;;;;-1.82;68.80;99739.44;6023492;23;20106;-68
2022/03/08 10:20:32;;;;;;;11.50;4.18;;;;;;;-1.59;68.18;99730.41;6025728;23;20026;-71
2022/03/08 10:23:01;;;;;;;12.65;4.15;;;;;;;-1.60;66.35;99743.72;6050389;23;20037;-73
2022/03/08 10:25:30;;;;;;;11.95;3.55;;;;;;;-1.94;67.35;99737.31;6074186;23;20093;-70
2022/03/08 10:27:56;;;;;;;12.50;4.85;;;;;;;-1.82;66.80;99744.72;6072649;23;20034;-71
2022/03/08 10:30:23;;;;;;;13.10;4.55;;;;;;;-1.85;66.20;99736.91;6056793;23;20033;-70
2022/03/08 10:32:49;;;;;;;14.60;4.85;;;;;;;-2.14;67.68;99756.78;6080586;23;20360;-68
2022/03/08 10:35:23;;;;;;;12.45;4.07;;;;;;;-2.16;67.33;99749.81;6058005;23;20022;-75
2022/03/08 10:37:49;;;;;;;10.65;4.13;;;;;;;-2.12;66.28;99754.06;6059065;23;20002;-73
2022/03/08 10:40:22;;;;;;;12.25;4.80;;;;;;;-2.15;68.04;99754.22;6089905;23;20026;-73
2022/03/08 10:43:00;;;;;;;17.38;5.75;;;;;;;-1.94;67.21;99747.91;6032011;23;20405;-71
2022/03/08 10:45:28;;;;;;;12.88;4.88;;;;;;;-2.07;67.06;99755.59;6045809;23;20026;-67
2022/03/08 10:47:54;;;;;;;12.38;3.63;;;;;;;-2.21;67.03;99756.19;6024626;23;20026;-71
2022/03/08 10:50:26;;;;;;;11.32;3.65;;;;;;;-2.45;66.98;99762.56;6021455;23;20022;-67
2022/03/08 10:52:55;;;;;;;11.23;4.18;;;;;;;-2.63;67.87;99758.06;6045317;23;20026;-68
2022/03/08 10:55:23;;;;;;;10.80;3.75;;;;;;;-2.76;67.14;99763.88;6022086;23;20029;-69
2022/03/08 10:57:54;;;;;;;13.23;4.93;;;;;;;-2.79;68.70;99776.38;6024073;23;20023;-68
2022/03/08 11:00:31;;;;;;;9.63;3.83;;;;;;;-2.69;67.90;99775.94;6044061;23;20316;-65
2022/03/08 11:03:02;;;;;;;11.32;4.07;;;;;;;-2.61;66.98;99777.41;6044930;23;20029;-66
2022/03/08 11:05:30;;;;;;;13.13;4.40;;;;;;;-2.61;68.01;99772.09;6042975;23;20061;-67
2022/03/08 11:07:57;;;;;;;12.98;4.22;;;;;;;-2.47;65.94;99773.22;6043756;23;20489;-68
2022/03/08 11:10:25;;;;;;;13.70;3.65;;;;;;;-2.68;68.72;99739.75;6029114;23;20026;-75
2022/03/08 11:12:54;;;;;;;13.57;4.07;;;;;;;-2.53;66.52;99733.78;6048799;23;20049;-70
2022/03/08 11:15:21;;;;;;;13.65;4.45;;;;;;;-2.32;65.83;99737.28;6003313;23;20026;-71
2022/03/08 11:17:50;;;;;;;13.35;5.03;;;;;;;-2.51;66.34;99737.25;6031383;23;20081;-72
2022/03/08 11:20:18;;;;;;;14.80;4.00;;;;;;;-2.54;65.60;99768.28;6025659;23;20074;-68
2022/03/08 11:25:51;;;;;;;11.60;4.57;;;;;;;-2.13;66.31;99784.13;6126245;23;20032;-68
2022/03/08 11:28:20;;;;;;;13.13;4.18;;;;;;;-2.30;65.28;99777.81;6030378;23;20038;-70